Historyczne dane pomiarowe

Dodano dane terminowe – wersja testowa.

Dane z okresu 1951-2018

Wersja bazy: 1.27 [2018-11-28, lista zmian], aktualizacja planowana na 2018-12-07

Dane meteo z obszaru Polski uzyskane na podstawie danych udostępnionych przez Instytut Meteorologii i Gospodarki Wodnej – Państwowy Instytut Badawczy.

 

Wybierz Datę:    

       

TemperaturaWilgotnośćWiatrCiśnienieOpadyŚniegCzas trwania zjawisk
 Stacja t tx tn tng RH VA  wxwx mslp ppp RRR   cm mm wxwxwxwxwxwxwx
1978-11-08 4.0 7.1 2.0- 94.3- 8.0 1.0---- 0.0------------
1978-11-09 3.1 4.9 0.8- 90.5- 8.0 1.0---- 0.0------------
1978-11-10 3.1 4.0 0.9- 93.0- 8.0 1.0---- 0.0------------
1978-11-11 2.1 3.6 1.1- 89.3- 8.0 1.0---- 0.0------------
1978-11-12 0.5 2.5 -2.2- 87.5- 4.7 1.0---- 0.0------------
1978-11-13 -0.9 2.4 -2.6- 92.3- 3.0 1.0---- 0.0------------
1978-11-14 1.1 4.9 -3.4- 82.5- 4.0 1.0---- 0.0------------
1978-11-15 3.3 12.1 -1.1- 86.8- 0.3 1.0---- 0.0------------
1978-11-16 2.4 8.6 -3.7- 82.3- 2.7 2.0---- 0.0------------
1978-11-17 4.1 8.8 -0.3- 79.0- 2.3 3.0---- 0.0------------
1978-11-18 7.3 11.1 2.6- 76.5- 4.7 1.3---- 0.0------------
1978-11-19 6.8 14.2 3.0- 65.0- 2.3 1.0---- 0.0------------
1978-11-20 3.1 8.1 -3.6- 81.5- 3.0 2.3---- 0.0------------
1978-11-21 4.1 7.8 2.5- 86.5- 5.3 1.0---- 0.0------------
1978-11-22 4.1 8.9 -1.6- 85.0- 7.7 1.3---- 0.0------------
1978-11-23 9.0 10.6 7.6- 72.0- 8.0 4.0---- 0.0------------
1978-11-24 8.7 10.4 7.5- 72.3- 8.0 2.0---- 0.0------------
1978-11-25 4.2 11.4 -1.2- 79.0- 0.3 1.0---- 0.0------------
1978-11-26 1.9 4.5 0.6- 88.5- 4.3 1.0---- 0.0------------
1978-11-27 0.1 1.3 -2.8- 94.8- 8.0 1.0---- 2.3------------
1978-11-28 0.1 1.4 -1.0- 91.0- 8.0 1.0---- 5.0-- 1---------
1978-11-29 0.0 2.1 -0.5- 93.0- 8.0 4.3---- 5.0-- 8---------
1978-11-30 -0.5 1.0 -3.2- 93.0- 8.0 1.0---- 9.5-- 18---------
1978-12-01 0.7 1.0 0.2- 95.3- 8.0 1.0---- 0.9-- 17---------
1978-12-02 0.5 1.1 0.2- 96.0- 8.0 1.0---- 1.1-- 12---------
1978-12-03 -1.2 0.4 -3.3- 80.8- 7.3 1.0---- 0.0-- 9---------
1978-12-04-11.8 -2.8-14.5- 82.5- 2.3 1.0---- 0.0-- 9---------
1978-12-05-13.0 -7.8-18.1- 81.3- 8.0 2.3---- 0.3-- 9---------
1978-12-06-10.5 -7.1-16.2- 81.8- 2.7 1.0---- 0.0-- 10---------
1978-12-07-17.7-13.2-21.8- 82.0- 1.3 1.0---- 0.0-- 10---------
162.3 ms

 

Źródłem pochodzenia danych jest Instytut Meteorologii i Gospodarki Wodnej – Państwowy Instytut Badawczy. Dane Instytutu Meteorologii i Gospodarki Wodnej – Państwowego Instytutu Badawczego zostały przetworzone.

Dane źródłowe można odnaleźć na stronie https://dane.imgw.pl